sensor_id;sensor_type;location;lat;lon;timestamp;P1;durP1;ratioP1;P2;durP2;ratioP2
10977;SDS011;5542;48.272;10.794;2022-09-12T00:01:47;1.33;;;1.33;;
10977;SDS011;5542;48.272;10.794;2022-09-12T00:04:14;1.52;;;1.52;;
10977;SDS011;5542;48.272;10.794;2022-09-12T00:06:40;1.20;;;1.20;;
10977;SDS011;5542;48.272;10.794;2022-09-12T00:09:08;1.57;;;1.47;;
10977;SDS011;5542;48.272;10.794;2022-09-12T00:11:36;1.50;;;1.50;;
10977;SDS011;5542;48.272;10.794;2022-09-12T00:14:05;1.70;;;1.60;;
10977;SDS011;5542;48.272;10.794;2022-09-12T00:16:34;1.30;;;1.30;;
10977;SDS011;5542;48.272;10.794;2022-09-12T00:19:02;1.23;;;1.23;;
10977;SDS011;5542;48.272;10.794;2022-09-12T00:21:31;1.00;;;1.00;;
10977;SDS011;5542;48.272;10.794;2022-09-12T00:23:58;1.25;;;1.25;;
10977;SDS011;5542;48.272;10.794;2022-09-12T00:26:25;1.10;;;1.10;;
10977;SDS011;5542;48.272;10.794;2022-09-12T00:28:51;1.10;;;1.10;;
10977;SDS011;5542;48.272;10.794;2022-09-12T00:31:19;1.20;;;1.20;;
10977;SDS011;5542;48.272;10.794;2022-09-12T00:33:49;1.63;;;1.55;;
10977;SDS011;5542;48.272;10.794;2022-09-12T00:36:16;1.70;;;1.60;;
10977;SDS011;5542;48.272;10.794;2022-09-12T00:38:45;1.95;;;1.85;;
10977;SDS011;5542;48.272;10.794;2022-09-12T00:41:13;1.60;;;1.55;;
10977;SDS011;5542;48.272;10.794;2022-09-12T00:43:42;1.60;;;1.50;;
10977;SDS011;5542;48.272;10.794;2022-09-12T00:46:12;1.20;;;1.20;;
10977;SDS011;5542;48.272;10.794;2022-09-12T00:48:55;1.40;;;1.40;;
10977;SDS011;5542;48.272;10.794;2022-09-12T00:51:25;1.10;;;1.10;;
10977;SDS011;5542;48.272;10.794;2022-09-12T00:53:54;1.20;;;1.20;;
10977;SDS011;5542;48.272;10.794;2022-09-12T00:56:23;0.98;;;0.98;;
10977;SDS011;5542;48.272;10.794;2022-09-12T00:58:53;1.02;;;1.02;;
10977;SDS011;5542;48.272;10.794;2022-09-12T01:01:23;1.10;;;1.10;;
10977;SDS011;5542;48.272;10.794;2022-09-12T01:03:50;1.10;;;1.10;;
10977;SDS011;5542;48.272;10.794;2022-09-12T01:06:18;1.15;;;1.15;;
10977;SDS011;5542;48.272;10.794;2022-09-12T01:08:47;1.23;;;1.23;;
10977;SDS011;5542;48.272;10.794;2022-09-12T01:11:17;1.05;;;1.05;;
10977;SDS011;5542;48.272;10.794;2022-09-12T01:13:45;0.93;;;0.93;;
10977;SDS011;5542;48.272;10.794;2022-09-12T01:16:14;0.82;;;0.82;;
10977;SDS011;5542;48.272;10.794;2022-09-12T01:18:44;1.05;;;1.05;;
10977;SDS011;5542;48.272;10.794;2022-09-12T01:21:31;1.10;;;1.10;;
10977;SDS011;5542;48.272;10.794;2022-09-12T01:30:16;1.00;;;1.00;;
10977;SDS011;5542;48.272;10.794;2022-09-12T01:32:49;1.10;;;1.10;;
10977;SDS011;5542;48.272;10.794;2022-09-12T01:35:27;1.10;;;1.10;;
10977;SDS011;5542;48.272;10.794;2022-09-12T01:38:06;1.00;;;1.00;;
10977;SDS011;5542;48.272;10.794;2022-09-12T01:40:38;1.38;;;1.38;;
10977;SDS011;5542;48.272;10.794;2022-09-12T01:43:11;1.02;;;1.02;;
10977;SDS011;5542;48.272;10.794;2022-09-12T01:45:49;0.90;;;0.90;;
10977;SDS011;5542;48.272;10.794;2022-09-12T01:48:22;0.80;;;0.80;;
10977;SDS011;5542;48.272;10.794;2022-09-12T01:50:53;0.98;;;0.98;;
10977;SDS011;5542;48.272;10.794;2022-09-12T01:53:27;0.88;;;0.88;;
10977;SDS011;5542;48.272;10.794;2022-09-12T01:55:59;1.10;;;1.10;;
10977;SDS011;5542;48.272;10.794;2022-09-12T01:58:32;1.20;;;1.20;;
10977;SDS011;5542;48.272;10.794;2022-09-12T02:01:07;0.80;;;0.80;;
10977;SDS011;5542;48.272;10.794;2022-09-12T02:03:41;0.65;;;0.65;;
10977;SDS011;5542;48.272;10.794;2022-09-12T02:06:13;0.90;;;0.90;;
10977;SDS011;5542;48.272;10.794;2022-09-12T02:08:45;0.90;;;0.90;;
10977;SDS011;5542;48.272;10.794;2022-09-12T02:11:14;0.85;;;0.85;;
10977;SDS011;5542;48.272;10.794;2022-09-12T02:13:42;0.98;;;0.98;;
10977;SDS011;5542;48.272;10.794;2022-09-12T02:16:14;1.00;;;1.00;;
10977;SDS011;5542;48.272;10.794;2022-09-12T02:18:45;1.08;;;1.08;;
10977;SDS011;5542;48.272;10.794;2022-09-12T02:21:15;0.90;;;0.90;;
10977;SDS011;5542;48.272;10.794;2022-09-12T02:23:46;0.90;;;0.90;;
10977;SDS011;5542;48.272;10.794;2022-09-12T02:26:17;0.70;;;0.70;;
10977;SDS011;5542;48.272;10.794;2022-09-12T02:28:48;0.90;;;0.90;;
10977;SDS011;5542;48.272;10.794;2022-09-12T02:31:18;0.70;;;0.70;;
10977;SDS011;5542;48.272;10.794;2022-09-12T02:33:51;1.00;;;1.00;;
10977;SDS011;5542;48.272;10.794;2022-09-12T02:36:27;0.80;;;0.80;;
10977;SDS011;5542;48.272;10.794;2022-09-12T02:38:59;1.00;;;1.00;;
10977;SDS011;5542;48.272;10.794;2022-09-12T02:41:26;1.00;;;1.00;;
10977;SDS011;5542;48.272;10.794;2022-09-12T02:43:53;0.80;;;0.80;;
10977;SDS011;5542;48.272;10.794;2022-09-12T02:46:22;0.90;;;0.90;;
10977;SDS011;5542;48.272;10.794;2022-09-12T02:48:52;1.02;;;1.02;;
10977;SDS011;5542;48.272;10.794;2022-09-12T02:51:19;1.17;;;1.17;;
10977;SDS011;5542;48.272;10.794;2022-09-12T02:53:47;0.80;;;0.80;;
10977;SDS011;5542;48.272;10.794;2022-09-12T02:56:19;1.13;;;1.02;;
10977;SDS011;5542;48.272;10.794;2022-09-12T02:58:50;0.93;;;0.93;;
10977;SDS011;5542;48.272;10.794;2022-09-12T03:01:21;0.90;;;0.90;;
10977;SDS011;5542;48.272;10.794;2022-09-12T03:04:12;0.90;;;0.90;;
10977;SDS011;5542;48.272;10.794;2022-09-12T03:06:52;1.10;;;1.10;;
10977;SDS011;5542;48.272;10.794;2022-09-12T03:09:29;1.00;;;1.00;;
10977;SDS011;5542;48.272;10.794;2022-09-12T03:12:09;1.38;;;1.33;;
10977;SDS011;5542;48.272;10.794;2022-09-12T03:14:51;0.90;;;0.90;;
10977;SDS011;5542;48.272;10.794;2022-09-12T03:17:42;1.00;;;1.00;;
10977;SDS011;5542;48.272;10.794;2022-09-12T03:20:21;1.33;;;1.30;;
10977;SDS011;5542;48.272;10.794;2022-09-12T03:22:55;0.90;;;0.90;;
10977;SDS011;5542;48.272;10.794;2022-09-12T03:25:27;1.00;;;1.00;;
10977;SDS011;5542;48.272;10.794;2022-09-12T03:27:58;0.77;;;0.77;;
10977;SDS011;5542;48.272;10.794;2022-09-12T03:30:30;0.80;;;0.80;;
10977;SDS011;5542;48.272;10.794;2022-09-12T03:33:03;0.70;;;0.70;;
10977;SDS011;5542;48.272;10.794;2022-09-12T03:35:30;0.80;;;0.80;;
10977;SDS011;5542;48.272;10.794;2022-09-12T03:37:56;0.80;;;0.80;;
10977;SDS011;5542;48.272;10.794;2022-09-12T03:40:23;0.82;;;0.82;;
10977;SDS011;5542;48.272;10.794;2022-09-12T03:42:49;0.80;;;0.80;;
10977;SDS011;5542;48.272;10.794;2022-09-12T03:45:16;0.80;;;0.80;;
10977;SDS011;5542;48.272;10.794;2022-09-12T03:47:42;0.70;;;0.70;;
10977;SDS011;5542;48.272;10.794;2022-09-12T03:50:10;0.90;;;0.90;;
10977;SDS011;5542;48.272;10.794;2022-09-12T03:52:37;0.85;;;0.85;;
10977;SDS011;5542;48.272;10.794;2022-09-12T03:55:04;1.10;;;1.10;;
10977;SDS011;5542;48.272;10.794;2022-09-12T03:57:31;0.80;;;0.80;;
10977;SDS011;5542;48.272;10.794;2022-09-12T03:59:58;0.50;;;0.50;;
10977;SDS011;5542;48.272;10.794;2022-09-12T04:02:26;0.60;;;0.60;;
10977;SDS011;5542;48.272;10.794;2022-09-12T04:04:52;0.80;;;0.80;;
10977;SDS011;5542;48.272;10.794;2022-09-12T04:07:20;0.80;;;0.80;;
10977;SDS011;5542;48.272;10.794;2022-09-12T04:09:47;0.90;;;0.90;;
10977;SDS011;5542;48.272;10.794;2022-09-12T04:12:14;0.60;;;0.60;;
10977;SDS011;5542;48.272;10.794;2022-09-12T04:14:40;0.68;;;0.68;;
10977;SDS011;5542;48.272;10.794;2022-09-12T04:17:07;0.68;;;0.68;;
10977;SDS011;5542;48.272;10.794;2022-09-12T04:19:34;0.60;;;0.60;;
10977;SDS011;5542;48.272;10.794;2022-09-12T04:22:01;0.65;;;0.65;;
10977;SDS011;5542;48.272;10.794;2022-09-12T04:24:30;0.70;;;0.70;;
10977;SDS011;5542;48.272;10.794;2022-09-12T04:26:56;0.75;;;0.75;;
10977;SDS011;5542;48.272;10.794;2022-09-12T04:29:23;0.80;;;0.80;;
10977;SDS011;5542;48.272;10.794;2022-09-12T04:31:50;0.63;;;0.63;;
10977;SDS011;5542;48.272;10.794;2022-09-12T04:34:16;0.43;;;0.43;;
10977;SDS011;5542;48.272;10.794;2022-09-12T04:36:43;0.60;;;0.57;;
10977;SDS011;5542;48.272;10.794;2022-09-12T04:39:10;1.60;;;0.70;;
10977;SDS011;5542;48.272;10.794;2022-09-12T04:41:38;0.70;;;0.70;;
10977;SDS011;5542;48.272;10.794;2022-09-12T04:44:06;0.88;;;0.88;;
10977;SDS011;5542;48.272;10.794;2022-09-12T04:46:36;0.88;;;0.88;;
10977;SDS011;5542;48.272;10.794;2022-09-12T04:49:04;1.67;;;1.10;;
10977;SDS011;5542;48.272;10.794;2022-09-12T04:51:31;2.10;;;0.90;;
10977;SDS011;5542;48.272;10.794;2022-09-12T04:54:00;0.63;;;0.63;;
10977;SDS011;5542;48.272;10.794;2022-09-12T04:56:29;0.60;;;0.60;;
10977;SDS011;5542;48.272;10.794;2022-09-12T04:58:57;0.60;;;0.60;;
10977;SDS011;5542;48.272;10.794;2022-09-12T05:01:25;0.90;;;0.77;;
10977;SDS011;5542;48.272;10.794;2022-09-12T05:03:53;0.70;;;0.70;;
10977;SDS011;5542;48.272;10.794;2022-09-12T05:06:22;0.90;;;0.90;;
10977;SDS011;5542;48.272;10.794;2022-09-12T05:08:50;1.00;;;1.00;;
10977;SDS011;5542;48.272;10.794;2022-09-12T05:11:19;0.80;;;0.80;;
10977;SDS011;5542;48.272;10.794;2022-09-12T05:13:47;1.50;;;0.88;;
10977;SDS011;5542;48.272;10.794;2022-09-12T05:16:16;1.40;;;0.98;;
10977;SDS011;5542;48.272;10.794;2022-09-12T05:18:44;1.05;;;1.05;;
10977;SDS011;5542;48.272;10.794;2022-09-12T05:21:11;0.95;;;0.95;;
10977;SDS011;5542;48.272;10.794;2022-09-12T05:23:40;1.17;;;1.10;;
10977;SDS011;5542;48.272;10.794;2022-09-12T05:26:07;1.20;;;1.10;;
10977;SDS011;5542;48.272;10.794;2022-09-12T05:28:37;2.53;;;1.30;;
10977;SDS011;5542;48.272;10.794;2022-09-12T05:31:04;1.30;;;1.20;;
10977;SDS011;5542;48.272;10.794;2022-09-12T05:33:34;1.13;;;0.90;;
10977;SDS011;5542;48.272;10.794;2022-09-12T05:36:02;1.30;;;1.20;;
10977;SDS011;5542;48.272;10.794;2022-09-12T05:38:30;1.98;;;1.70;;
10977;SDS011;5542;48.272;10.794;2022-09-12T05:41:01;1.37;;;1.27;;
10977;SDS011;5542;48.272;10.794;2022-09-12T05:43:29;1.20;;;1.20;;
10977;SDS011;5542;48.272;10.794;2022-09-12T05:45:59;0.88;;;0.88;;
10977;SDS011;5542;48.272;10.794;2022-09-12T05:48:26;1.27;;;1.27;;
10977;SDS011;5542;48.272;10.794;2022-09-12T05:50:58;1.05;;;1.05;;
10977;SDS011;5542;48.272;10.794;2022-09-12T05:53:26;1.08;;;1.08;;
10977;SDS011;5542;48.272;10.794;2022-09-12T05:56:00;1.80;;;1.60;;
10977;SDS011;5542;48.272;10.794;2022-09-12T05:58:27;0.98;;;0.98;;
10977;SDS011;5542;48.272;10.794;2022-09-12T06:00:54;1.00;;;1.00;;
10977;SDS011;5542;48.272;10.794;2022-09-12T06:03:21;0.73;;;0.73;;
10977;SDS011;5542;48.272;10.794;2022-09-12T06:05:47;1.10;;;1.10;;
10977;SDS011;5542;48.272;10.794;2022-09-12T06:08:15;1.10;;;1.10;;
10977;SDS011;5542;48.272;10.794;2022-09-12T06:10:42;1.45;;;1.35;;
10977;SDS011;5542;48.272;10.794;2022-09-12T06:13:08;1.90;;;1.40;;
10977;SDS011;5542;48.272;10.794;2022-09-12T06:15:35;1.25;;;1.25;;
10977;SDS011;5542;48.272;10.794;2022-09-12T06:18:02;1.67;;;1.57;;
10977;SDS011;5542;48.272;10.794;2022-09-12T06:20:28;1.90;;;1.80;;
10977;SDS011;5542;48.272;10.794;2022-09-12T06:22:55;1.80;;;1.70;;
10977;SDS011;5542;48.272;10.794;2022-09-12T06:25:23;1.60;;;1.50;;
10977;SDS011;5542;48.272;10.794;2022-09-12T06:27:50;1.70;;;1.60;;
10977;SDS011;5542;48.272;10.794;2022-09-12T06:30:17;1.88;;;1.65;;
10977;SDS011;5542;48.272;10.794;2022-09-12T06:32:43;1.58;;;1.48;;
10977;SDS011;5542;48.272;10.794;2022-09-12T06:35:10;1.60;;;1.42;;
10977;SDS011;5542;48.272;10.794;2022-09-12T06:37:37;1.50;;;1.40;;
10977;SDS011;5542;48.272;10.794;2022-09-12T06:40:05;1.40;;;1.30;;
10977;SDS011;5542;48.272;10.794;2022-09-12T06:42:33;1.42;;;1.30;;
10977;SDS011;5542;48.272;10.794;2022-09-12T06:45:00;1.00;;;1.00;;
10977;SDS011;5542;48.272;10.794;2022-09-12T06:47:26;1.40;;;1.30;;
10977;SDS011;5542;48.272;10.794;2022-09-12T06:49:53;1.23;;;1.20;;
10977;SDS011;5542;48.272;10.794;2022-09-12T06:52:20;1.33;;;1.33;;
10977;SDS011;5542;48.272;10.794;2022-09-12T06:54:47;2.10;;;1.40;;
10977;SDS011;5542;48.272;10.794;2022-09-12T06:57:13;1.20;;;1.20;;
10977;SDS011;5542;48.272;10.794;2022-09-12T06:59:41;1.30;;;1.30;;
10977;SDS011;5542;48.272;10.794;2022-09-12T07:02:08;1.55;;;1.45;;
10977;SDS011;5542;48.272;10.794;2022-09-12T07:04:36;1.90;;;1.80;;
10977;SDS011;5542;48.272;10.794;2022-09-12T07:07:03;1.90;;;1.50;;
10977;SDS011;5542;48.272;10.794;2022-09-12T07:09:29;1.30;;;1.30;;
10977;SDS011;5542;48.272;10.794;2022-09-12T07:11:56;1.23;;;1.15;;
10977;SDS011;5542;48.272;10.794;2022-09-12T07:14:23;1.10;;;1.10;;
10977;SDS011;5542;48.272;10.794;2022-09-12T07:16:51;1.42;;;1.33;;
10977;SDS011;5542;48.272;10.794;2022-09-12T07:19:17;1.40;;;1.30;;
10977;SDS011;5542;48.272;10.794;2022-09-12T07:21:44;1.38;;;1.27;;
10977;SDS011;5542;48.272;10.794;2022-09-12T07:24:11;1.20;;;1.10;;
10977;SDS011;5542;48.272;10.794;2022-09-12T07:26:38;1.40;;;1.30;;
10977;SDS011;5542;48.272;10.794;2022-09-12T07:29:06;1.00;;;1.00;;
10977;SDS011;5542;48.272;10.794;2022-09-12T07:31:34;1.10;;;1.10;;
10977;SDS011;5542;48.272;10.794;2022-09-12T07:34:04;2.92;;;1.17;;
10977;SDS011;5542;48.272;10.794;2022-09-12T07:36:31;1.70;;;1.05;;
10977;SDS011;5542;48.272;10.794;2022-09-12T07:38:57;1.60;;;1.50;;
10977;SDS011;5542;48.272;10.794;2022-09-12T07:41:24;1.70;;;1.50;;
10977;SDS011;5542;48.272;10.794;2022-09-12T07:43:53;1.67;;;1.25;;
10977;SDS011;5542;48.272;10.794;2022-09-12T07:46:20;1.65;;;1.40;;
10977;SDS011;5542;48.272;10.794;2022-09-12T07:48:49;2.47;;;1.10;;
10977;SDS011;5542;48.272;10.794;2022-09-12T07:51:17;1.05;;;1.05;;
10977;SDS011;5542;48.272;10.794;2022-09-12T07:53:44;1.58;;;1.10;;
10977;SDS011;5542;48.272;10.794;2022-09-12T07:56:13;1.37;;;1.27;;
10977;SDS011;5542;48.272;10.794;2022-09-12T07:58:40;1.17;;;1.17;;
10977;SDS011;5542;48.272;10.794;2022-09-12T08:01:08;2.30;;;1.30;;
10977;SDS011;5542;48.272;10.794;2022-09-12T08:03:37;2.28;;;1.35;;
10977;SDS011;5542;48.272;10.794;2022-09-12T08:06:04;1.88;;;1.33;;
10977;SDS011;5542;48.272;10.794;2022-09-12T08:08:33;1.48;;;1.38;;
10977;SDS011;5542;48.272;10.794;2022-09-12T08:11:01;1.50;;;1.40;;
10977;SDS011;5542;48.272;10.794;2022-09-12T08:13:30;1.88;;;1.77;;
10977;SDS011;5542;48.272;10.794;2022-09-12T08:15:58;1.67;;;1.58;;
10977;SDS011;5542;48.272;10.794;2022-09-12T08:18:25;1.67;;;1.58;;
10977;SDS011;5542;48.272;10.794;2022-09-12T08:20:55;1.85;;;1.70;;
10977;SDS011;5542;48.272;10.794;2022-09-12T08:23:23;1.38;;;1.35;;
10977;SDS011;5542;48.272;10.794;2022-09-12T08:25:51;1.70;;;1.60;;
10977;SDS011;5542;48.272;10.794;2022-09-12T08:28:20;1.23;;;1.20;;
10977;SDS011;5542;48.272;10.794;2022-09-12T08:30:47;1.60;;;1.50;;
10977;SDS011;5542;48.272;10.794;2022-09-12T08:33:14;2.10;;;1.63;;
10977;SDS011;5542;48.272;10.794;2022-09-12T08:35:40;1.60;;;1.50;;
10977;SDS011;5542;48.272;10.794;2022-09-12T08:38:07;1.60;;;1.50;;
10977;SDS011;5542;48.272;10.794;2022-09-12T08:40:37;1.80;;;1.70;;
10977;SDS011;5542;48.272;10.794;2022-09-12T08:43:16;1.75;;;1.60;;
10977;SDS011;5542;48.272;10.794;2022-09-12T08:46:00;2.05;;;1.95;;
10977;SDS011;5542;48.272;10.794;2022-09-12T08:48:31;2.20;;;2.00;;
10977;SDS011;5542;48.272;10.794;2022-09-12T08:50:58;1.88;;;1.50;;
10977;SDS011;5542;48.272;10.794;2022-09-12T08:53:26;2.33;;;2.15;;
10977;SDS011;5542;48.272;10.794;2022-09-12T08:55:55;2.60;;;2.42;;
10977;SDS011;5542;48.272;10.794;2022-09-12T08:58:26;3.40;;;2.00;;
10977;SDS011;5542;48.272;10.794;2022-09-12T09:00:55;1.98;;;1.88;;
10977;SDS011;5542;48.272;10.794;2022-09-12T09:03:38;2.15;;;1.95;;
10977;SDS011;5542;48.272;10.794;2022-09-12T09:06:24;1.70;;;1.60;;
10977;SDS011;5542;48.272;10.794;2022-09-12T09:09:03;3.33;;;2.92;;
10977;SDS011;5542;48.272;10.794;2022-09-12T09:11:36;2.40;;;2.13;;
10977;SDS011;5542;48.272;10.794;2022-09-12T09:14:25;1.85;;;1.75;;
10977;SDS011;5542;48.272;10.794;2022-09-12T09:17:15;3.43;;;2.20;;
10977;SDS011;5542;48.272;10.794;2022-09-12T09:19:50;2.30;;;2.08;;
10977;SDS011;5542;48.272;10.794;2022-09-12T09:22:25;1.65;;;1.55;;
10977;SDS011;5542;48.272;10.794;2022-09-12T09:25:05;2.45;;;2.25;;
10977;SDS011;5542;48.272;10.794;2022-09-12T09:27:40;2.08;;;1.90;;
10977;SDS011;5542;48.272;10.794;2022-09-12T09:30:13;2.90;;;2.53;;
10977;SDS011;5542;48.272;10.794;2022-09-12T09:32:42;2.35;;;2.25;;
10977;SDS011;5542;48.272;10.794;2022-09-12T09:35:15;2.42;;;2.22;;
10977;SDS011;5542;48.272;10.794;2022-09-12T09:37:49;2.17;;;2.08;;
10977;SDS011;5542;48.272;10.794;2022-09-12T09:40:26;1.60;;;1.50;;
10977;SDS011;5542;48.272;10.794;2022-09-12T09:43:05;1.88;;;1.77;;
10977;SDS011;5542;48.272;10.794;2022-09-12T09:45:41;1.90;;;1.80;;
10977;SDS011;5542;48.272;10.794;2022-09-12T09:48:12;2.03;;;1.92;;
10977;SDS011;5542;48.272;10.794;2022-09-12T09:50:42;1.88;;;1.77;;
10977;SDS011;5542;48.272;10.794;2022-09-12T09:53:11;1.92;;;1.77;;
10977;SDS011;5542;48.272;10.794;2022-09-12T09:55:50;2.40;;;2.30;;
10977;SDS011;5542;48.272;10.794;2022-09-12T09:58:27;2.20;;;2.10;;
10977;SDS011;5542;48.272;10.794;2022-09-12T10:00:58;1.60;;;1.50;;
10977;SDS011;5542;48.272;10.794;2022-09-12T10:03:30;2.08;;;1.98;;
10977;SDS011;5542;48.272;10.794;2022-09-12T10:05:58;1.88;;;1.77;;
10977;SDS011;5542;48.272;10.794;2022-09-12T10:08:27;1.73;;;1.63;;
10977;SDS011;5542;48.272;10.794;2022-09-12T10:10:57;2.63;;;2.42;;
10977;SDS011;5542;48.272;10.794;2022-09-12T10:13:29;2.22;;;2.03;;
10977;SDS011;5542;48.272;10.794;2022-09-12T10:16:01;1.80;;;1.70;;
10977;SDS011;5542;48.272;10.794;2022-09-12T10:21:24;1.80;;;1.70;;
10977;SDS011;5542;48.272;10.794;2022-09-12T10:23:58;1.83;;;1.73;;
10977;SDS011;5542;48.272;10.794;2022-09-12T10:26:30;1.50;;;1.40;;
10977;SDS011;5542;48.272;10.794;2022-09-12T10:29:02;1.95;;;1.85;;
10977;SDS011;5542;48.272;10.794;2022-09-12T10:31:40;1.77;;;1.67;;
10977;SDS011;5542;48.272;10.794;2022-09-12T10:34:18;1.63;;;1.55;;
10977;SDS011;5542;48.272;10.794;2022-09-12T10:36:48;1.50;;;1.50;;
10977;SDS011;5542;48.272;10.794;2022-09-12T10:39:19;1.80;;;1.70;;
10977;SDS011;5542;48.272;10.794;2022-09-12T10:41:46;1.33;;;1.33;;
10977;SDS011;5542;48.272;10.794;2022-09-12T10:44:13;2.22;;;1.50;;
10977;SDS011;5542;48.272;10.794;2022-09-12T10:46:43;1.50;;;1.50;;
10977;SDS011;5542;48.272;10.794;2022-09-12T10:49:11;1.50;;;1.50;;
10977;SDS011;5542;48.272;10.794;2022-09-12T10:51:45;1.73;;;1.63;;
10977;SDS011;5542;48.272;10.794;2022-09-12T10:54:12;1.70;;;1.60;;
10977;SDS011;5542;48.272;10.794;2022-09-12T10:56:43;1.90;;;1.80;;
10977;SDS011;5542;48.272;10.794;2022-09-12T10:59:24;1.33;;;1.30;;
10977;SDS011;5542;48.272;10.794;2022-09-12T11:02:10;1.23;;;1.23;;
10977;SDS011;5542;48.272;10.794;2022-09-12T11:04:48;1.73;;;1.63;;
10977;SDS011;5542;48.272;10.794;2022-09-12T11:07:29;1.80;;;1.70;;
10977;SDS011;5542;48.272;10.794;2022-09-12T11:10:08;1.80;;;1.50;;
10977;SDS011;5542;48.272;10.794;2022-09-12T11:12:46;1.92;;;1.83;;
10977;SDS011;5542;48.272;10.794;2022-09-12T11:15:29;2.05;;;1.95;;
10977;SDS011;5542;48.272;10.794;2022-09-12T11:18:19;1.73;;;1.63;;
10977;SDS011;5542;48.272;10.794;2022-09-12T11:21:00;1.65;;;1.55;;
10977;SDS011;5542;48.272;10.794;2022-09-12T11:23:43;1.90;;;1.80;;
10977;SDS011;5542;48.272;10.794;2022-09-12T11:26:43;1.83;;;1.73;;
10977;SDS011;5542;48.272;10.794;2022-09-12T11:29:20;1.50;;;1.50;;
10977;SDS011;5542;48.272;10.794;2022-09-12T11:32:02;1.98;;;1.88;;
10977;SDS011;5542;48.272;10.794;2022-09-12T11:34:43;1.90;;;1.80;;
10977;SDS011;5542;48.272;10.794;2022-09-12T11:37:36;1.30;;;1.30;;
10977;SDS011;5542;48.272;10.794;2022-09-12T11:40:21;1.60;;;1.50;;
10977;SDS011;5542;48.272;10.794;2022-09-12T11:42:54;1.80;;;1.70;;
10977;SDS011;5542;48.272;10.794;2022-09-12T11:45:27;1.40;;;1.40;;
10977;SDS011;5542;48.272;10.794;2022-09-12T11:47:58;1.50;;;1.40;;
10977;SDS011;5542;48.272;10.794;2022-09-12T11:50:30;1.80;;;1.70;;
10977;SDS011;5542;48.272;10.794;2022-09-12T11:52:59;1.50;;;1.40;;
10977;SDS011;5542;48.272;10.794;2022-09-12T11:55:31;1.73;;;1.63;;
10977;SDS011;5542;48.272;10.794;2022-09-12T11:58:06;1.23;;;1.23;;
10977;SDS011;5542;48.272;10.794;2022-09-12T12:00:35;1.75;;;1.65;;
10977;SDS011;5542;48.272;10.794;2022-09-12T12:03:07;1.35;;;1.30;;
10977;SDS011;5542;48.272;10.794;2022-09-12T12:05:41;1.40;;;1.40;;
10977;SDS011;5542;48.272;10.794;2022-09-12T12:08:16;2.10;;;1.53;;
10977;SDS011;5542;48.272;10.794;2022-09-12T12:10:44;1.42;;;1.42;;
10977;SDS011;5542;48.272;10.794;2022-09-12T12:13:16;1.20;;;1.20;;
10977;SDS011;5542;48.272;10.794;2022-09-12T12:15:47;1.10;;;1.10;;
10977;SDS011;5542;48.272;10.794;2022-09-12T12:18:17;1.27;;;1.27;;
10977;SDS011;5542;48.272;10.794;2022-09-12T12:20:49;1.35;;;1.35;;
10977;SDS011;5542;48.272;10.794;2022-09-12T12:23:21;1.40;;;1.40;;
10977;SDS011;5542;48.272;10.794;2022-09-12T12:25:50;1.80;;;1.42;;
10977;SDS011;5542;48.272;10.794;2022-09-12T12:31:22;1.17;;;1.17;;
10977;SDS011;5542;48.272;10.794;2022-09-12T12:36:55;1.48;;;1.45;;
10977;SDS011;5542;48.272;10.794;2022-09-12T12:45:47;1.70;;;1.60;;
10977;SDS011;5542;48.272;10.794;2022-09-12T12:51:28;1.70;;;1.60;;
10977;SDS011;5542;48.272;10.794;2022-09-12T12:54:03;1.30;;;1.30;;
10977;SDS011;5542;48.272;10.794;2022-09-12T12:56:56;1.60;;;1.50;;
10977;SDS011;5542;48.272;10.794;2022-09-12T12:59:26;1.73;;;1.63;;
10977;SDS011;5542;48.272;10.794;2022-09-12T13:01:53;1.60;;;1.50;;
10977;SDS011;5542;48.272;10.794;2022-09-12T13:04:23;1.33;;;1.30;;
10977;SDS011;5542;48.272;10.794;2022-09-12T13:06:57;1.70;;;1.60;;
10977;SDS011;5542;48.272;10.794;2022-09-12T13:09:30;1.63;;;1.52;;
10977;SDS011;5542;48.272;10.794;2022-09-12T13:12:00;1.30;;;1.30;;
10977;SDS011;5542;48.272;10.794;2022-09-12T13:14:34;1.17;;;1.17;;
10977;SDS011;5542;48.272;10.794;2022-09-12T13:17:13;1.30;;;1.30;;
10977;SDS011;5542;48.272;10.794;2022-09-12T13:19:45;1.58;;;1.50;;
10977;SDS011;5542;48.272;10.794;2022-09-12T13:22:13;1.58;;;1.50;;
10977;SDS011;5542;48.272;10.794;2022-09-12T13:24:45;1.50;;;1.40;;
10977;SDS011;5542;48.272;10.794;2022-09-12T13:27:17;1.10;;;1.10;;
10977;SDS011;5542;48.272;10.794;2022-09-12T13:29:44;1.37;;;1.27;;
10977;SDS011;5542;48.272;10.794;2022-09-12T13:32:11;1.50;;;1.40;;
10977;SDS011;5542;48.272;10.794;2022-09-12T13:34:42;1.25;;;1.25;;
10977;SDS011;5542;48.272;10.794;2022-09-12T13:37:27;1.00;;;1.00;;
10977;SDS011;5542;48.272;10.794;2022-09-12T13:40:12;1.48;;;1.38;;
10977;SDS011;5542;48.272;10.794;2022-09-12T13:42:50;1.50;;;1.40;;
10977;SDS011;5542;48.272;10.794;2022-09-12T13:45:31;1.45;;;1.45;;
10977;SDS011;5542;48.272;10.794;2022-09-12T13:48:01;1.20;;;1.20;;
10977;SDS011;5542;48.272;10.794;2022-09-12T13:50:31;1.30;;;1.30;;
10977;SDS011;5542;48.272;10.794;2022-09-12T13:53:06;1.00;;;1.00;;
10977;SDS011;5542;48.272;10.794;2022-09-12T13:55:40;0.80;;;0.80;;
10977;SDS011;5542;48.272;10.794;2022-09-12T13:58:14;1.15;;;1.15;;
10977;SDS011;5542;48.272;10.794;2022-09-12T14:00:44;1.20;;;1.20;;
10977;SDS011;5542;48.272;10.794;2022-09-12T14:03:13;1.10;;;1.10;;
10977;SDS011;5542;48.272;10.794;2022-09-12T14:06:05;1.20;;;1.10;;
10977;SDS011;5542;48.272;10.794;2022-09-12T14:08:32;1.10;;;1.10;;
10977;SDS011;5542;48.272;10.794;2022-09-12T14:11:00;1.60;;;1.50;;
10977;SDS011;5542;48.272;10.794;2022-09-12T14:13:33;1.40;;;1.30;;
10977;SDS011;5542;48.272;10.794;2022-09-12T14:16:00;1.50;;;1.40;;
10977;SDS011;5542;48.272;10.794;2022-09-12T14:18:28;1.10;;;1.10;;
10977;SDS011;5542;48.272;10.794;2022-09-12T14:21:01;0.95;;;0.95;;
10977;SDS011;5542;48.272;10.794;2022-09-12T14:23:34;1.40;;;1.40;;
10977;SDS011;5542;48.272;10.794;2022-09-12T14:26:08;1.40;;;1.30;;
10977;SDS011;5542;48.272;10.794;2022-09-12T14:28:38;1.15;;;1.13;;
10977;SDS011;5542;48.272;10.794;2022-09-12T14:31:06;1.45;;;1.42;;
10977;SDS011;5542;48.272;10.794;2022-09-12T14:33:45;1.20;;;1.20;;
10977;SDS011;5542;48.272;10.794;2022-09-12T14:36:17;1.20;;;1.10;;
10977;SDS011;5542;48.272;10.794;2022-09-12T14:38:48;1.15;;;1.15;;
10977;SDS011;5542;48.272;10.794;2022-09-12T14:41:21;1.50;;;1.30;;
10977;SDS011;5542;48.272;10.794;2022-09-12T14:43:51;1.10;;;1.10;;
10977;SDS011;5542;48.272;10.794;2022-09-12T14:46:22;1.60;;;1.50;;
10977;SDS011;5542;48.272;10.794;2022-09-12T14:48:53;1.05;;;1.05;;
10977;SDS011;5542;48.272;10.794;2022-09-12T14:51:24;3.20;;;1.37;;
10977;SDS011;5542;48.272;10.794;2022-09-12T14:53:52;1.17;;;1.17;;
10977;SDS011;5542;48.272;10.794;2022-09-12T14:56:20;2.00;;;1.70;;
10977;SDS011;5542;48.272;10.794;2022-09-12T14:58:47;2.47;;;2.05;;
10977;SDS011;5542;48.272;10.794;2022-09-12T15:01:21;1.60;;;1.50;;
10977;SDS011;5542;48.272;10.794;2022-09-12T15:03:50;0.90;;;0.90;;
10977;SDS011;5542;48.272;10.794;2022-09-12T15:06:19;1.35;;;1.25;;
10977;SDS011;5542;48.272;10.794;2022-09-12T15:08:47;0.90;;;0.90;;
10977;SDS011;5542;48.272;10.794;2022-09-12T15:11:14;1.38;;;1.25;;
10977;SDS011;5542;48.272;10.794;2022-09-12T15:13:42;1.00;;;1.00;;
10977;SDS011;5542;48.272;10.794;2022-09-12T15:16:10;1.55;;;1.45;;
10977;SDS011;5542;48.272;10.794;2022-09-12T15:18:37;1.10;;;1.10;;
10977;SDS011;5542;48.272;10.794;2022-09-12T15:21:04;1.15;;;1.15;;
10977;SDS011;5542;48.272;10.794;2022-09-12T15:23:33;1.00;;;1.00;;
10977;SDS011;5542;48.272;10.794;2022-09-12T15:26:04;1.08;;;1.08;;
10977;SDS011;5542;48.272;10.794;2022-09-12T15:28:32;1.10;;;1.00;;
10977;SDS011;5542;48.272;10.794;2022-09-12T15:31:02;1.00;;;1.00;;
10977;SDS011;5542;48.272;10.794;2022-09-12T15:33:31;1.20;;;1.10;;
10977;SDS011;5542;48.272;10.794;2022-09-12T15:35:58;0.73;;;0.73;;